Date,TemperatureHighF,TemperatureAvgF,TemperatureLowF,DewpointHighF,DewpointAvgF,DewpointLowF,HumidityHigh,HumidityAvg,HumidityLow,PressureMaxIn,PressureMinIn,WindSpeedMaxMPH,WindSpeedAvgMPH,GustSpeedMaxMPH,PrecipitationSumIn
2013-1-1,37,34,32,37,32,24,98,93,64,30.02,29.85,6,2,0,0.17
2013-1-2,32,29,22,32,24,18,98,85,61,30.11,29.91,8,3,0,0.00
2013-1-3,35,23,16,23,20,15,98,86,56,30.16,30.06,7,2,0,0.00
2013-1-4,33,27,21,24,21,18,88,77,68,30.24,30.13,11,4,0,0.00
2013-1-5,41,29,17,30,24,16,98,80,54,30.33,30.12,9,1,0,0.02
2013-1-6,39,35,29,31,29,25,95,80,70,30.14,29.99,12,2,0,0.00
2013-1-7,43,29,20,29,24,20,98,82,56,30.38,30.13,14,3,0,0.00
2013-1-8,52,28,15,32,23,14,98,85,43,30.35,30.27,5,1,0,0.00
2013-1-9,47,37,22,47,36,22,98,94,74,30.44,30.29,6,1,0,0.01
2013-1-10,50,38,27,43,34,26,98,89,66,30.52,30.33,6,1,0,0.00
2013-1-11,52,45,34,51,43,33,98,93,74,30.33,30.05,12,3,0,0.08
2013-1-13,69,64,60,58,57,55,92,78,64,29.98,29.94,5,2,0,0.00
2013-1-14,48,45,38,46,44,37,98,96,90,30.22,30.06,5,2,0,0.13
2013-1-15,43,40,39,42,40,39,98,98,98,30.18,29.98,7,3,0,0.83
2013-1-16,48,41,38,47,41,37,98,98,98,30.00,29.83,7,3,0,0.31
2013-1-17,34,32,28,33,31,27,98,98,91,30.11,29.95,4,1,0,0.15
2013-1-18,38,26,12,29,22,12,98,87,64,30.39,30.12,0,0,0,0.24
2013-1-19,51,29,7,36,22,5,98,76,50,30.33,30.00,6,2,0,0.44
2013-1-20,47,37,26,33,25,14,83,62,40,30.02,29.94,12,3,0,0.00
2013-1-21,42,28,16,22,15,6,92,60,38,30.01,29.79,17,4,0,0.00
2013-1-22,20,13,8,7,0,-4,71,54,38,30.11,29.90,21,6,0,0.00
2013-1-23,26,17,6,15,4,-3,77,59,34,30.17,29.90,13,4,0,0.00
2013-1-24,25,16,-1,18,8,-29,91,71,24,30.38,29.88,17,6,0,0.00
2013-1-25,27,18,7,27,13,2,98,80,53,30.32,29.91,6,2,0,0.00
2013-1-26,30,26,22,28,22,18,98,85,76,30.31,29.96,19,6,0,0.00
2013-1-27,41,27,8,28,20,6,96,78,55,30.42,30.29,6,1,0,0.09
2013-1-28,56,42,32,49,40,27,98,93,77,30.29,30.11,10,2,0,0.18
2013-1-29,68,55,45,56,50,31,98,86,47,30.14,29.94,6,2,0,0.00
2013-1-30,67,58,46,62,56,45,98,93,82,29.93,29.34,12,4,0,2.39
2013-1-31,45,30,25,44,24,17,98,79,63,29.82,29.32,14,6,0,0.09
2013-2-1,29,15,1,28,8,-2,98,74,53,30.22,29.69,18,6,0,0.00
2013-2-2,28,18,1,27,14,-2,98,87,56,30.20,29.88,6,2,0,0.00
2013-2-3,33,26,21,28,23,15,98,86,77,29.95,29.74,11,4,0,0.00
2013-2-4,39,27,16,33,20,12,87,76,61,30.00,29.81,13,3,0,0.06
2013-2-5,43,38,32,36,33,29,98,83,72,29.86,29.78,8,3,0,0.04
2013-2-6,47,35,24,35,30,24,98,81,55,30.21,29.86,14,3,0,0.00
2013-2-7,40,34,24,36,31,24,98,90,77,30.22,29.99,8,3,0,0.00
2013-2-8,43,33,27,41,31,24,98,93,84,30.07,29.78,24,5,0,0.05
2013-2-9,43,28,18,25,19,16,94,71,33,30.27,30.07,14,5,0,0.00
2013-2-10,50,34,16,37,23,15,98,72,35,30.30,30.06,8,2,0,0.09
2013-2-11,59,47,38,53,39,21,98,77,38,30.06,29.81,14,4,0,0.01
2013-2-12,51,40,32,28,26,21,84,58,31,30.04,29.84,12,4,0,0.00
2013-2-13,44,35,31,39,32,24,98,87,59,29.87,29.51,9,3,0,0.24
2013-2-14,31,30,28,30,27,24,97,89,81,29.88,29.78,9,5,0,0.00
2013-2-17,28,18,11,24,7,4,85,62,49,30.11,29.93,15,7,0,0.00
2013-2-18,50,30,8,33,18,4,87,62,46,30.22,29.99,9,2,0,0.00
2013-2-19,48,38,29,42,29,17,98,71,45,30.00,29.70,23,4,0,0.08
2013-2-20,32,25,20,17,14,11,70,61,53,30.08,29.87,19,7,0,0.00
2013-2-21,40,24,12,24,16,9,88,72,45,30.14,30.06,9,3,0,0.00
2013-2-22,43,36,29,38,33,20,98,90,54,30.16,29.99,8,4,0,0.11
2013-2-23,58,40,33,45,38,33,98,90,63,30.00,29.74,5,2,0,0.00
2013-2-24,49,37,25,36,28,22,98,73,45,30.01,29.77,15,4,0,0.00
2013-2-25,46,31,17,28,22,17,98,73,49,30.08,29.98,12,3,0,0.00
2013-2-26,40,36,30,39,32,20,98,88,64,30.02,29.50,18,7,0,0.39
2013-2-27,40,38,33,38,35,33,98,90,80,29.67,29.51,11,3,0,0.04
2013-2-28,33,30,29,32,28,24,98,90,74,29.75,29.60,10,4,0,0.01
2013-3-1,33,30,28,29,26,23,98,86,71,29.82,29.72,13,5,0,0.00
2013-3-2,28,25,22,23,20,17,88,80,71,29.84,29.77,12,6,0,0.00
2013-3-3,24,22,21,19,17,12,89,80,67,29.90,29.80,12,6,0,0.00
2013-3-4,42,26,19,20,15,11,88,63,33,30.02,29.89,14,5,0,0.00
2013-3-5,45,34,24,42,31,19,98,87,65,29.99,29.52,15,3,0,0.57
2013-3-6,33,29,26,33,28,25,98,97,90,29.76,29.53,6,3,0,0.00
2013-3-7,30,30,30,29,28,28,96,94,93,30.18,30.17,5,3,0,0.00
2013-3-8,41,32,22,30,26,22,98,79,62,30.28,30.14,17,6,0,0.25
2013-3-9,60,38,17,37,28,16,98,71,38,30.29,30.18,6,2,0,0.02
2013-3-10,64,46,29,40,34,27,98,66,41,30.21,30.09,11,2,0,0.00
2013-3-11,55,52,47,52,43,34,98,73,56,30.11,29.78,14,4,0,0.00
2013-3-12,54,41,26,52,38,26,98,90,69,29.95,29.70,10,4,0,0.31
2013-3-13,38,30,25,31,27,18,98,89,68,30.05,29.91,14,4,0,0.04
2013-3-14,41,33,22,22,19,15,76,57,44,30.17,30.06,15,7,0,0.00
2013-3-15,57,46,18,39,33,16,92,64,48,30.04,29.81,10,3,0,0.00
2013-3-16,64,55,41,53,50,40,98,84,67,29.79,29.67,9,4,0,0.09
2013-3-17,46,42,38,44,42,38,98,96,89,30.03,29.96,8,3,0,0.28
2013-3-18,36,34,32,36,33,31,98,97,93,30.01,29.76,11,4,0,0.39
2013-3-19,52,44,35,38,24,4,98,53,19,29.94,29.80,17,7,0,0.00
2013-3-20,49,39,23,20,16,12,68,40,25,29.97,29.71,15,5,0,0.00
2013-3-21,18,18,18,13,13,13,79,79,79,29.72,29.72,8,8,0,0.00
2013-4-2,46,38,24,24,19,15,78,46,29,30.10,30.01,11,4,0,0.00
2013-4-3,47,30,17,23,18,15,93,65,30,30.23,30.10,13,4,0,0.00
2013-4-5,58,49,32,38,34,29,97,59,40,30.01,29.87,12,5,0,0.00
2013-4-6,68,44,25,39,32,25,98,68,31,30.19,30.01,8,2,0,0.00
2013-4-7,72,56,40,48,40,30,77,57,37,30.13,29.99,13,3,0,0.00
2013-4-8,77,58,41,53,48,40,98,73,42,30.09,29.97,10,2,0,0.00
2013-4-9,81,62,45,59,52,44,98,74,38,30.16,30.02,9,2,0,0.00
2013-4-10,50,48,47,49,48,46,98,97,92,30.07,30.03,0,0,0,0.00
2013-4-24,79,59,44,61,53,42,98,84,48,30.11,29.86,14,6,0,0.06
2013-4-25,67,48,32,41,34,26,94,63,25,30.29,30.12,18,4,0,0.00
2013-4-26,72,51,29,42,36,28,98,64,27,30.40,30.28,9,2,0,0.00
2013-5-7,54,50,46,54,50,46,98,98,98,29.93,29.86,7,2,0,1.36
2013-5-8,67,52,45,58,50,44,98,94,70,30.00,29.87,7,2,0,0.87
2013-5-9,77,60,44,60,53,43,98,82,49,30.07,29.96,9,2,0,0.00
2013-5-10,78,62,49,66,58,48,98,88,55,30.08,29.93,9,2,0,0.37
2013-5-11,71,61,54,65,59,53,98,94,71,29.93,29.79,7,3,0,0.37
2013-5-12,56,49,35,54,40,34,98,74,45,30.05,29.83,15,5,0,0.01
2013-5-13,54,42,30,38,34,29,98,76,46,30.15,30.02,15,4,0,0.00
2013-5-14,75,50,28,48,39,27,98,71,35,30.18,29.96,9,2,0,0.00
2013-5-15,56,50,47,55,49,46,98,98,95,30.00,29.96,4,1,0,0.00
2013-5-22,77,70,65,71,65,60,98,86,75,29.93,29.89,6,2,0,0.00
2013-5-23,80,66,59,69,62,59,98,89,56,29.93,29.81,9,3,0,0.09
2013-5-24,59,50,40,58,46,38,98,86,57,30.20,29.86,18,6,0,0.01
2013-5-25,62,48,32,43,38,32,98,73,39,30.27,30.19,18,4,0,0.00
2013-5-26,68,53,36,48,41,36,98,70,34,30.25,30.19,13,3,0,0.00
2013-5-27,40,39,37,39,39,36,98,98,98,30.25,30.22,3,0,0,0.00
2013-5-28,40,40,40,39,39,39,98,98,98,30.25,30.25,0,0,0,0.00
2013-5-29,40,40,40,39,39,39,98,98,98,30.25,30.25,0,0,0,0.00
2013-5-30,40,40,40,39,39,39,98,98,98,30.25,30.25,0,0,0,0.00
2013-5-31,40,40,40,39,39,39,98,98,98,30.25,30.25,0,0,0,0.00
2013-6-1,40,40,40,39,39,39,98,98,98,30.25,30.25,0,0,0,0.00
2013-6-2,40,40,40,39,39,39,98,98,98,30.25,30.25,0,0,0,0.00
2013-6-3,40,40,40,39,39,39,98,98,98,30.25,30.25,0,0,0,0.00
2013-6-4,40,40,40,39,39,39,98,98,98,30.25,30.25,0,0,0,0.00
2013-6-5,40,40,40,39,39,39,98,98,98,30.25,30.25,0,0,0,0.00
2013-6-6,40,40,40,39,39,39,98,98,98,30.25,30.25,0,0,0,0.00
2013-6-8,40,40,40,39,39,39,98,98,98,30.25,30.25,0,0,0,0.00
2013-6-9,40,40,40,39,39,39,98,98,98,30.25,30.25,0,0,0,0.00
2013-6-10,40,40,40,39,39,39,98,98,98,30.25,30.25,0,0,0,0.00
2013-6-11,40,40,40,39,39,39,98,98,98,30.25,30.25,0,0,0,0.00
2013-6-12,89,60,40,77,57,39,98,90,64,30.25,29.91,11,1,0,0.00
2013-6-13,79,68,58,75,67,57,98,97,87,29.91,29.69,13,3,0,0.45
2013-6-14,73,62,52,63,58,52,98,88,67,30.07,29.82,13,3,0,0.00
2013-6-15,84,64,48,65,58,47,98,83,50,30.16,30.06,8,2,0,0.00
2013-6-16,80,67,53,71,63,52,98,89,66,30.10,30.02,9,2,0,0.17
2013-6-17,65,64,62,64,63,62,98,98,98,30.06,30.03,3,1,0,0.01
2013-6-20,67,65,64,66,65,63,98,98,98,30.27,30.23,3,1,0,0.00
2013-6-21,86,71,57,71,66,56,98,84,58,30.30,30.21,8,2,0,0.00
2013-6-22,88,70,54,69,63,53,98,81,52,30.29,30.16,7,2,0,0.00
2013-6-23,91,73,60,72,66,59,98,83,50,30.25,30.15,6,1,0,0.00
2013-6-24,86,73,62,74,68,62,98,88,64,30.25,30.12,6,2,0,0.01
2013-6-25,92,74,60,76,69,59,98,86,56,30.17,30.03,6,2,0,0.00
2013-6-26,83,72,62,76,70,61,98,94,73,30.05,29.92,11,2,0,0.07
2013-6-27,76,69,64,73,68,64,98,97,91,29.94,29.77,7,2,0,0.17
2013-6-28,88,74,62,75,68,62,98,83,53,29.78,29.59,15,3,0,0.04
2013-6-29,84,70,58,71,65,58,98,85,53,29.74,29.63,7,2,0,0.00
2013-6-30,87,72,58,72,66,57,98,84,51,29.87,29.73,8,2,0,0.00
2013-7-1,83,72,65,74,69,64,98,90,69,29.99,29.84,10,2,0,0.06
2013-7-2,80,71,66,73,69,65,98,94,76,30.17,29.98,9,2,0,0.21
2013-7-3,77,70,65,75,69,64,98,96,85,30.26,30.15,5,2,0,1.00
2013-7-4,86,74,66,75,71,65,98,91,68,30.29,30.19,9,3,0,0.09
2013-7-5,89,74,65,77,71,64,98,90,64,30.28,30.18,6,2,0,0.09
2013-7-6,89,75,62,75,69,62,98,84,57,30.26,30.15,10,2,0,0.00
2013-7-7,84,70,64,76,68,63,98,95,75,30.21,30.12,10,1,0,0.21
2013-7-8,83,70,61,73,67,60,98,91,64,30.23,30.15,5,1,0,0.00
2013-7-9,88,74,63,77,70,62,98,88,60,30.20,30.10,4,1,0,0.00
2013-7-10,86,73,67,79,71,66,98,96,75,30.13,29.98,6,1,0,1.01
2013-7-11,68,67,67,67,67,66,98,98,98,29.98,29.96,5,1,0,0.00
2013-7-12,78,71,64,70,68,63,98,89,74,30.05,29.98,13,4,0,0.00
2013-7-13,76,72,67,73,70,67,98,95,88,30.20,30.14,6,3,0,0.05
2013-7-14,85,78,66,75,72,66,98,85,70,30.36,30.31,13,5,0,0.02
2013-7-15,96,76,63,77,70,63,98,85,52,30.41,30.31,6,2,0,0.00
2013-7-16,90,75,62,78,71,62,98,88,60,30.40,30.29,7,1,0,0.04
2013-7-17,68,66,65,67,66,64,98,98,98,30.34,30.31,2,0,0,0.00
2013-9-1,73,69,66,72,68,65,98,98,98,29.90,29.86,3,0,0,0.00
2013-9-2,88,69,65,77,67,65,98,95,70,29.91,29.85,4,1,0,0.00
2013-9-6,83,69,54,69,61,54,98,79,51,30.23,30.12,6,2,0,0.00
2013-9-7,85,63,49,68,58,48,98,86,49,30.15,30.02,9,1,0,0.00
2013-9-8,67,55,52,66,55,52,98,98,98,30.04,30.01,3,0,0,0.00
2013-11-6,55,54,54,53,53,52,94,94,92,30.15,30.14,3,2,0,0.00
2013-11-7,49,43,37,48,41,35,94,92,88,30.11,29.97,9,4,0,0.13
2013-11-9,56,42,21,34,29,20,94,62,35,30.25,30.10,10,2,0,0.00
2013-11-10,55,40,23,39,31,21,94,72,35,30.27,30.08,14,4,0,0.00
2013-11-11,61,36,19,34,26,18,94,74,29,30.28,30.06,8,1,0,0.00
2013-11-12,44,32,18,40,26,16,94,81,46,30.38,30.02,13,5,0,0.02
2013-11-13,22,20,18,20,18,16,94,92,85,30.40,30.36,8,5,0,0.00
2013-11-14,52,26,11,24,16,10,94,74,33,30.33,30.27,9,3,0,0.00
2013-11-16,49,41,36,40,35,21,94,85,33,30.27,30.21,1,0,0,0.19
2013-11-18,59,47,38,57,38,29,94,71,42,30.02,29.80,14,5,0,0.20
2013-11-19,40,32,23,31,26,21,94,80,63,30.26,30.02,16,5,0,0.00
2013-11-20,46,31,25,28,25,23,94,80,49,30.32,30.24,12,3,0,0.00
2013-11-22,60,52,39,58,50,37,94,94,94,30.25,30.10,10,2,0,0.07
2013-11-23,45,35,20,44,31,14,94,85,68,30.21,30.10,19,6,0,0.00
2013-11-24,22,16,7,15,6,3,94,66,46,30.40,30.21,17,7,0,0.00
2013-11-25,39,22,7,23,12,5,94,68,31,30.41,30.23,5,1,0,0.00
2013-11-26,42,34,29,40,33,23,94,93,77,30.23,29.65,10,2,0,2.29
2013-11-27,38,24,17,37,22,12,94,92,81,30.09,29.66,18,6,0,0.06
2013-11-28,32,20,14,21,16,13,94,86,64,30.35,30.09,12,3,0,0.00
2013-11-29,40,23,11,27,19,9,94,86,57,30.51,30.35,9,1,0,0.02
2013-11-30,39,25,15,28,21,14,94,85,63,30.50,30.25,5,1,0,0.00
2013-12-1,48,30,12,37,27,10,94,88,59,30.24,29.97,5,1,0,0.00
2013-12-2,49,40,34,42,37,32,94,90,75,29.97,29.80,4,1,0,0.00
2013-12-3,52,39,30,47,37,29,94,92,81,29.93,29.82,4,0,0,0.00
2013-12-4,63,45,29,54,43,27,94,92,73,30.03,29.92,6,1,0,0.00
2013-12-5,64,49,32,60,47,31,94,94,87,30.06,29.95,3,0,0,0.14
2013-12-6,57,44,34,56,43,32,94,94,94,30.09,29.90,11,3,0,1.07
2013-12-7,34,30,27,32,28,26,94,94,94,30.39,30.09,8,3,0,0.01
2013-12-8,30,28,26,29,27,25,94,94,94,30.36,30.12,8,3,0,0.58
2013-12-9,41,33,28,40,31,26,94,94,94,30.10,30.03,5,1,0,1.00
2013-12-10,30,30,30,29,28,28,94,94,94,30.03,29.93,3,1,0,0.09